sensor_id;sensor_type;location;lat;lon;timestamp;P1;durP1;ratioP1;P2;durP2;ratioP2
76599;SDS011;65489;52.048;6.090;2024-03-02T00:00:10;1.20;;;0.30;;
76599;SDS011;65489;52.048;6.090;2024-03-02T00:02:45;0.68;;;0.28;;
76599;SDS011;65489;52.048;6.090;2024-03-02T00:05:14;0.40;;;0.20;;
76599;SDS011;65489;52.048;6.090;2024-03-02T00:07:41;0.70;;;0.20;;
76599;SDS011;65489;52.048;6.090;2024-03-02T00:10:08;0.50;;;0.30;;
76599;SDS011;65489;52.048;6.090;2024-03-02T00:12:37;0.45;;;0.30;;
76599;SDS011;65489;52.048;6.090;2024-03-02T00:15:17;0.50;;;0.30;;
76599;SDS011;65489;52.048;6.090;2024-03-02T00:17:58;0.90;;;0.20;;
76599;SDS011;65489;52.048;6.090;2024-03-02T00:20:24;0.30;;;0.20;;
76599;SDS011;65489;52.048;6.090;2024-03-02T00:22:57;0.50;;;0.20;;
76599;SDS011;65489;52.048;6.090;2024-03-02T00:25:34;0.50;;;0.30;;
76599;SDS011;65489;52.048;6.090;2024-03-02T00:28:14;0.47;;;0.30;;
76599;SDS011;65489;52.048;6.090;2024-03-02T00:30:54;0.60;;;0.28;;
76599;SDS011;65489;52.048;6.090;2024-03-02T00:33:20;0.50;;;0.32;;
76599;SDS011;65489;52.048;6.090;2024-03-02T00:35:47;0.30;;;0.20;;
76599;SDS011;65489;52.048;6.090;2024-03-02T00:38:14;1.15;;;0.50;;
76599;SDS011;65489;52.048;6.090;2024-03-02T00:40:43;0.93;;;0.60;;
76599;SDS011;65489;52.048;6.090;2024-03-02T00:45:58;0.70;;;0.30;;
76599;SDS011;65489;52.048;6.090;2024-03-02T00:48:23;0.73;;;0.30;;
76599;SDS011;65489;52.048;6.090;2024-03-02T00:50:52;0.68;;;0.30;;
76599;SDS011;65489;52.048;6.090;2024-03-02T00:53:18;1.00;;;0.30;;
76599;SDS011;65489;52.048;6.090;2024-03-02T00:55:49;0.30;;;0.20;;
76599;SDS011;65489;52.048;6.090;2024-03-02T00:58:14;0.50;;;0.30;;
76599;SDS011;65489;52.048;6.090;2024-03-02T01:00:39;1.58;;;0.22;;
76599;SDS011;65489;52.048;6.090;2024-03-02T01:03:05;0.50;;;0.17;;
76599;SDS011;65489;52.048;6.090;2024-03-02T01:05:30;0.30;;;0.20;;
76599;SDS011;65489;52.048;6.090;2024-03-02T01:07:56;0.45;;;0.30;;
76599;SDS011;65489;52.048;6.090;2024-03-02T01:10:21;0.63;;;0.30;;
76599;SDS011;65489;52.048;6.090;2024-03-02T01:12:46;0.40;;;0.28;;
76599;SDS011;65489;52.048;6.090;2024-03-02T01:15:13;0.43;;;0.30;;
76599;SDS011;65489;52.048;6.090;2024-03-02T01:17:38;0.47;;;0.22;;
76599;SDS011;65489;52.048;6.090;2024-03-02T01:20:04;0.63;;;0.30;;
76599;SDS011;65489;52.048;6.090;2024-03-02T01:22:30;0.85;;;0.40;;
76599;SDS011;65489;52.048;6.090;2024-03-02T01:24:55;0.60;;;0.20;;
76599;SDS011;65489;52.048;6.090;2024-03-02T01:27:20;0.80;;;0.22;;
76599;SDS011;65489;52.048;6.090;2024-03-02T01:29:46;0.40;;;0.22;;
76599;SDS011;65489;52.048;6.090;2024-03-02T01:32:11;0.60;;;0.30;;
76599;SDS011;65489;52.048;6.090;2024-03-02T01:34:37;1.38;;;0.40;;
76599;SDS011;65489;52.048;6.090;2024-03-02T01:37:02;0.80;;;0.40;;
76599;SDS011;65489;52.048;6.090;2024-03-02T01:39:28;0.40;;;0.30;;
76599;SDS011;65489;52.048;6.090;2024-03-02T01:41:54;0.30;;;0.20;;
76599;SDS011;65489;52.048;6.090;2024-03-02T01:44:19;0.50;;;0.35;;
76599;SDS011;65489;52.048;6.090;2024-03-02T01:46:45;0.50;;;0.40;;
76599;SDS011;65489;52.048;6.090;2024-03-02T01:49:10;0.40;;;0.30;;
76599;SDS011;65489;52.048;6.090;2024-03-02T01:51:35;0.40;;;0.28;;
76599;SDS011;65489;52.048;6.090;2024-03-02T01:54:01;0.70;;;0.35;;
76599;SDS011;65489;52.048;6.090;2024-03-02T01:56:27;0.30;;;0.22;;
76599;SDS011;65489;52.048;6.090;2024-03-02T01:58:52;0.30;;;0.20;;
76599;SDS011;65489;52.048;6.090;2024-03-02T02:01:17;0.40;;;0.30;;
76599;SDS011;65489;52.048;6.090;2024-03-02T02:03:43;0.50;;;0.30;;
76599;SDS011;65489;52.048;6.090;2024-03-02T02:06:09;0.30;;;0.20;;
76599;SDS011;65489;52.048;6.090;2024-03-02T02:08:36;0.88;;;0.40;;
76599;SDS011;65489;52.048;6.090;2024-03-02T02:11:02;0.35;;;0.25;;
76599;SDS011;65489;52.048;6.090;2024-03-02T02:13:28;0.57;;;0.30;;
76599;SDS011;65489;52.048;6.090;2024-03-02T02:15:53;0.40;;;0.30;;
76599;SDS011;65489;52.048;6.090;2024-03-02T02:18:19;0.68;;;0.30;;
76599;SDS011;65489;52.048;6.090;2024-03-02T02:20:44;0.40;;;0.30;;
76599;SDS011;65489;52.048;6.090;2024-03-02T02:23:09;0.40;;;0.20;;
76599;SDS011;65489;52.048;6.090;2024-03-02T02:25:35;0.98;;;0.38;;
76599;SDS011;65489;52.048;6.090;2024-03-02T02:28:00;0.50;;;0.30;;
76599;SDS011;65489;52.048;6.090;2024-03-02T02:30:27;0.75;;;0.30;;
76599;SDS011;65489;52.048;6.090;2024-03-02T02:32:54;0.43;;;0.30;;
76599;SDS011;65489;52.048;6.090;2024-03-02T02:35:19;0.50;;;0.25;;
76599;SDS011;65489;52.048;6.090;2024-03-02T02:37:45;0.70;;;0.30;;
76599;SDS011;65489;52.048;6.090;2024-03-02T02:40:11;0.60;;;0.30;;
76599;SDS011;65489;52.048;6.090;2024-03-02T02:42:37;0.90;;;0.30;;
76599;SDS011;65489;52.048;6.090;2024-03-02T02:45:04;0.55;;;0.40;;
76599;SDS011;65489;52.048;6.090;2024-03-02T02:47:30;0.60;;;0.30;;
76599;SDS011;65489;52.048;6.090;2024-03-02T02:49:55;0.50;;;0.40;;
76599;SDS011;65489;52.048;6.090;2024-03-02T02:52:21;0.35;;;0.25;;
76599;SDS011;65489;52.048;6.090;2024-03-02T02:54:46;0.82;;;0.30;;
76599;SDS011;65489;52.048;6.090;2024-03-02T02:57:12;0.43;;;0.20;;
76599;SDS011;65489;52.048;6.090;2024-03-02T02:59:37;0.40;;;0.28;;
76599;SDS011;65489;52.048;6.090;2024-03-02T03:02:03;0.70;;;0.30;;
76599;SDS011;65489;52.048;6.090;2024-03-02T03:04:29;0.50;;;0.20;;
76599;SDS011;65489;52.048;6.090;2024-03-02T03:06:54;0.55;;;0.30;;
76599;SDS011;65489;52.048;6.090;2024-03-02T03:09:19;0.68;;;0.32;;
76599;SDS011;65489;52.048;6.090;2024-03-02T03:11:45;0.50;;;0.20;;
76599;SDS011;65489;52.048;6.090;2024-03-02T03:14:11;0.50;;;0.30;;
76599;SDS011;65489;52.048;6.090;2024-03-02T03:16:36;0.32;;;0.20;;
76599;SDS011;65489;52.048;6.090;2024-03-02T03:19:02;0.70;;;0.30;;
76599;SDS011;65489;52.048;6.090;2024-03-02T03:21:28;1.05;;;0.40;;
76599;SDS011;65489;52.048;6.090;2024-03-02T03:23:53;0.40;;;0.30;;
76599;SDS011;65489;52.048;6.090;2024-03-02T03:26:20;0.25;;;0.20;;
76599;SDS011;65489;52.048;6.090;2024-03-02T03:28:45;0.30;;;0.20;;
76599;SDS011;65489;52.048;6.090;2024-03-02T03:31:11;0.40;;;0.30;;
76599;SDS011;65489;52.048;6.090;2024-03-02T03:33:37;0.63;;;0.30;;
76599;SDS011;65489;52.048;6.090;2024-03-02T03:36:02;0.30;;;0.20;;
76599;SDS011;65489;52.048;6.090;2024-03-02T03:38:28;1.30;;;0.30;;
76599;SDS011;65489;52.048;6.090;2024-03-02T03:40:54;0.45;;;0.20;;
76599;SDS011;65489;52.048;6.090;2024-03-02T03:43:20;0.30;;;0.20;;
76599;SDS011;65489;52.048;6.090;2024-03-02T03:45:45;0.43;;;0.25;;
76599;SDS011;65489;52.048;6.090;2024-03-02T03:48:11;0.40;;;0.20;;
76599;SDS011;65489;52.048;6.090;2024-03-02T03:50:36;0.32;;;0.20;;
76599;SDS011;65489;52.048;6.090;2024-03-02T03:53:03;0.40;;;0.20;;
76599;SDS011;65489;52.048;6.090;2024-03-02T03:55:28;0.30;;;0.20;;
76599;SDS011;65489;52.048;6.090;2024-03-02T03:57:54;0.38;;;0.22;;
76599;SDS011;65489;52.048;6.090;2024-03-02T04:00:19;0.50;;;0.30;;
76599;SDS011;65489;52.048;6.090;2024-03-02T04:02:45;0.35;;;0.20;;
76599;SDS011;65489;52.048;6.090;2024-03-02T04:05:10;0.50;;;0.25;;
76599;SDS011;65489;52.048;6.090;2024-03-02T04:07:38;0.30;;;0.20;;
76599;SDS011;65489;52.048;6.090;2024-03-02T04:12:33;0.22;;;0.20;;
76599;SDS011;65489;52.048;6.090;2024-03-02T04:14:58;0.32;;;0.20;;
76599;SDS011;65489;52.048;6.090;2024-03-02T04:17:24;0.32;;;0.20;;
76599;SDS011;65489;52.048;6.090;2024-03-02T04:19:50;0.40;;;0.20;;
76599;SDS011;65489;52.048;6.090;2024-03-02T04:22:15;0.45;;;0.25;;
76599;SDS011;65489;52.048;6.090;2024-03-02T04:24:41;0.40;;;0.20;;
76599;SDS011;65489;52.048;6.090;2024-03-02T04:27:06;0.30;;;0.20;;
76599;SDS011;65489;52.048;6.090;2024-03-02T04:29:32;0.40;;;0.20;;
76599;SDS011;65489;52.048;6.090;2024-03-02T04:31:57;0.47;;;0.20;;
76599;SDS011;65489;52.048;6.090;2024-03-02T04:34:23;0.30;;;0.20;;
76599;SDS011;65489;52.048;6.090;2024-03-02T04:36:48;0.40;;;0.22;;
76599;SDS011;65489;52.048;6.090;2024-03-02T04:39:14;0.30;;;0.10;;
76599;SDS011;65489;52.048;6.090;2024-03-02T04:41:39;0.40;;;0.20;;
76599;SDS011;65489;52.048;6.090;2024-03-02T04:44:05;0.28;;;0.20;;
76599;SDS011;65489;52.048;6.090;2024-03-02T04:46:33;0.50;;;0.30;;
76599;SDS011;65489;52.048;6.090;2024-03-02T04:48:58;0.30;;;0.20;;
76599;SDS011;65489;52.048;6.090;2024-03-02T04:51:23;0.30;;;0.17;;
76599;SDS011;65489;52.048;6.090;2024-03-02T04:53:49;0.40;;;0.20;;
76599;SDS011;65489;52.048;6.090;2024-03-02T04:56:14;0.55;;;0.20;;
76599;SDS011;65489;52.048;6.090;2024-03-02T04:58:58;0.30;;;0.20;;
76599;SDS011;65489;52.048;6.090;2024-03-02T05:01:24;0.38;;;0.20;;
76599;SDS011;65489;52.048;6.090;2024-03-02T05:03:49;0.20;;;0.10;;
76599;SDS011;65489;52.048;6.090;2024-03-02T05:06:15;0.30;;;0.10;;
76599;SDS011;65489;52.048;6.090;2024-03-02T05:08:40;0.30;;;0.20;;
76599;SDS011;65489;52.048;6.090;2024-03-02T05:11:06;0.40;;;0.20;;
76599;SDS011;65489;52.048;6.090;2024-03-02T05:13:50;0.30;;;0.13;;
76599;SDS011;65489;52.048;6.090;2024-03-02T05:16:15;0.40;;;0.20;;
76599;SDS011;65489;52.048;6.090;2024-03-02T05:18:40;0.57;;;0.28;;
76599;SDS011;65489;52.048;6.090;2024-03-02T05:21:06;0.45;;;0.28;;
76599;SDS011;65489;52.048;6.090;2024-03-02T05:23:31;0.40;;;0.20;;
76599;SDS011;65489;52.048;6.090;2024-03-02T05:25:57;0.30;;;0.20;;
76599;SDS011;65489;52.048;6.090;2024-03-02T05:28:22;0.55;;;0.20;;
76599;SDS011;65489;52.048;6.090;2024-03-02T05:30:48;0.40;;;0.20;;
76599;SDS011;65489;52.048;6.090;2024-03-02T05:33:14;0.20;;;0.20;;
76599;SDS011;65489;52.048;6.090;2024-03-02T05:35:40;0.22;;;0.20;;
76599;SDS011;65489;52.048;6.090;2024-03-02T05:38:05;0.30;;;0.20;;
76599;SDS011;65489;52.048;6.090;2024-03-02T05:40:31;0.28;;;0.10;;
76599;SDS011;65489;52.048;6.090;2024-03-02T05:42:56;0.30;;;0.20;;
76599;SDS011;65489;52.048;6.090;2024-03-02T05:45:21;0.43;;;0.20;;
76599;SDS011;65489;52.048;6.090;2024-03-02T05:47:47;0.50;;;0.20;;
76599;SDS011;65489;52.048;6.090;2024-03-02T05:50:12;0.30;;;0.20;;
76599;SDS011;65489;52.048;6.090;2024-03-02T05:52:38;0.22;;;0.20;;
76599;SDS011;65489;52.048;6.090;2024-03-02T05:55:04;0.82;;;0.20;;
76599;SDS011;65489;52.048;6.090;2024-03-02T05:57:30;0.30;;;0.20;;
76599;SDS011;65489;52.048;6.090;2024-03-02T06:00:20;0.28;;;0.20;;
76599;SDS011;65489;52.048;6.090;2024-03-02T06:02:46;0.22;;;0.20;;
76599;SDS011;65489;52.048;6.090;2024-03-02T06:05:11;0.38;;;0.20;;
76599;SDS011;65489;52.048;6.090;2024-03-02T06:07:37;0.20;;;0.15;;
76599;SDS011;65489;52.048;6.090;2024-03-02T06:10:02;0.50;;;0.30;;
76599;SDS011;65489;52.048;6.090;2024-03-02T06:12:30;0.40;;;0.20;;
76599;SDS011;65489;52.048;6.090;2024-03-02T06:14:56;0.20;;;0.10;;
76599;SDS011;65489;52.048;6.090;2024-03-02T06:17:21;0.50;;;0.20;;
76599;SDS011;65489;52.048;6.090;2024-03-02T06:19:47;0.20;;;0.10;;
76599;SDS011;65489;52.048;6.090;2024-03-02T06:22:12;0.30;;;0.20;;
76599;SDS011;65489;52.048;6.090;2024-03-02T06:24:38;0.28;;;0.10;;
76599;SDS011;65489;52.048;6.090;2024-03-02T06:27:03;0.30;;;0.13;;
76599;SDS011;65489;52.048;6.090;2024-03-02T06:29:32;0.30;;;0.10;;
76599;SDS011;65489;52.048;6.090;2024-03-02T06:31:58;0.30;;;0.20;;
76599;SDS011;65489;52.048;6.090;2024-03-02T06:34:23;0.30;;;0.20;;
76599;SDS011;65489;52.048;6.090;2024-03-02T06:36:49;0.38;;;0.20;;
76599;SDS011;65489;52.048;6.090;2024-03-02T06:39:14;0.30;;;0.13;;
76599;SDS011;65489;52.048;6.090;2024-03-02T06:41:40;0.20;;;0.10;;
76599;SDS011;65489;52.048;6.090;2024-03-02T06:44:05;0.30;;;0.10;;
76599;SDS011;65489;52.048;6.090;2024-03-02T06:46:31;0.40;;;0.20;;
76599;SDS011;65489;52.048;6.090;2024-03-02T06:48:57;0.30;;;0.20;;
76599;SDS011;65489;52.048;6.090;2024-03-02T06:51:22;0.20;;;0.10;;
76599;SDS011;65489;52.048;6.090;2024-03-02T06:53:48;0.35;;;0.10;;
76599;SDS011;65489;52.048;6.090;2024-03-02T06:56:13;0.30;;;0.20;;
76599;SDS011;65489;52.048;6.090;2024-03-02T06:58:39;0.25;;;0.10;;
76599;SDS011;65489;52.048;6.090;2024-03-02T07:01:04;0.60;;;0.20;;
76599;SDS011;65489;52.048;6.090;2024-03-02T07:03:30;0.28;;;0.15;;
76599;SDS011;65489;52.048;6.090;2024-03-02T07:05:55;0.50;;;0.20;;
76599;SDS011;65489;52.048;6.090;2024-03-02T07:08:21;0.50;;;0.20;;
76599;SDS011;65489;52.048;6.090;2024-03-02T07:10:46;0.30;;;0.10;;
76599;SDS011;65489;52.048;6.090;2024-03-02T07:13:12;0.20;;;0.10;;
76599;SDS011;65489;52.048;6.090;2024-03-02T07:15:38;0.68;;;0.20;;
76599;SDS011;65489;52.048;6.090;2024-03-02T07:18:22;1.50;;;0.17;;
76599;SDS011;65489;52.048;6.090;2024-03-02T07:20:48;0.30;;;0.20;;
76599;SDS011;65489;52.048;6.090;2024-03-02T07:23:14;0.30;;;0.20;;
76599;SDS011;65489;52.048;6.090;2024-03-02T07:25:40;0.20;;;0.10;;
76599;SDS011;65489;52.048;6.090;2024-03-02T07:28:05;0.30;;;0.20;;
76599;SDS011;65489;52.048;6.090;2024-03-02T07:30:32;0.30;;;0.20;;
76599;SDS011;65489;52.048;6.090;2024-03-02T07:32:58;0.50;;;0.10;;
76599;SDS011;65489;52.048;6.090;2024-03-02T07:35:24;0.20;;;0.10;;
76599;SDS011;65489;52.048;6.090;2024-03-02T07:37:53;0.20;;;0.10;;
76599;SDS011;65489;52.048;6.090;2024-03-02T07:40:19;0.20;;;0.20;;
76599;SDS011;65489;52.048;6.090;2024-03-02T07:42:45;0.57;;;0.10;;
76599;SDS011;65489;52.048;6.090;2024-03-02T07:45:10;0.20;;;0.10;;
76599;SDS011;65489;52.048;6.090;2024-03-02T07:47:36;0.30;;;0.20;;
76599;SDS011;65489;52.048;6.090;2024-03-02T07:50:01;0.20;;;0.10;;
76599;SDS011;65489;52.048;6.090;2024-03-02T07:52:27;0.20;;;0.10;;
76599;SDS011;65489;52.048;6.090;2024-03-02T07:54:53;0.20;;;0.10;;
76599;SDS011;65489;52.048;6.090;2024-03-02T07:57:19;0.52;;;0.10;;
76599;SDS011;65489;52.048;6.090;2024-03-02T07:59:45;0.40;;;0.10;;
76599;SDS011;65489;52.048;6.090;2024-03-02T08:02:10;0.40;;;0.17;;
76599;SDS011;65489;52.048;6.090;2024-03-02T08:04:36;0.20;;;0.10;;
76599;SDS011;65489;52.048;6.090;2024-03-02T08:07:02;0.20;;;0.10;;
76599;SDS011;65489;52.048;6.090;2024-03-02T08:09:28;0.20;;;0.10;;
76599;SDS011;65489;52.048;6.090;2024-03-02T08:11:53;0.40;;;0.20;;
76599;SDS011;65489;52.048;6.090;2024-03-02T08:14:19;0.20;;;0.10;;
76599;SDS011;65489;52.048;6.090;2024-03-02T08:16:44;0.20;;;0.10;;
76599;SDS011;65489;52.048;6.090;2024-03-02T08:19:10;0.55;;;0.20;;
76599;SDS011;65489;52.048;6.090;2024-03-02T08:21:36;0.32;;;0.10;;
76599;SDS011;65489;52.048;6.090;2024-03-02T08:24:02;0.30;;;0.20;;
76599;SDS011;65489;52.048;6.090;2024-03-02T08:26:28;0.20;;;0.10;;
76599;SDS011;65489;52.048;6.090;2024-03-02T08:28:57;0.20;;;0.10;;
76599;SDS011;65489;52.048;6.090;2024-03-02T08:31:23;0.30;;;0.10;;
76599;SDS011;65489;52.048;6.090;2024-03-02T08:33:48;0.30;;;0.20;;
76599;SDS011;65489;52.048;6.090;2024-03-02T08:36:14;0.20;;;0.20;;
76599;SDS011;65489;52.048;6.090;2024-03-02T08:38:39;0.20;;;0.10;;
76599;SDS011;65489;52.048;6.090;2024-03-02T08:41:05;0.30;;;0.10;;
76599;SDS011;65489;52.048;6.090;2024-03-02T08:43:32;0.20;;;0.17;;
76599;SDS011;65489;52.048;6.090;2024-03-02T08:45:58;0.30;;;0.10;;
76599;SDS011;65489;52.048;6.090;2024-03-02T08:48:23;0.20;;;0.10;;
76599;SDS011;65489;52.048;6.090;2024-03-02T08:50:48;0.45;;;0.20;;
76599;SDS011;65489;52.048;6.090;2024-03-02T08:53:14;0.30;;;0.10;;
76599;SDS011;65489;52.048;6.090;2024-03-02T08:55:43;0.32;;;0.17;;
76599;SDS011;65489;52.048;6.090;2024-03-02T08:58:12;0.47;;;0.10;;
76599;SDS011;65489;52.048;6.090;2024-03-02T09:00:37;0.20;;;0.10;;
76599;SDS011;65489;52.048;6.090;2024-03-02T09:03:03;0.20;;;0.10;;
76599;SDS011;65489;52.048;6.090;2024-03-02T09:05:28;0.30;;;0.10;;
76599;SDS011;65489;52.048;6.090;2024-03-02T09:07:54;0.20;;;0.08;;
76599;SDS011;65489;52.048;6.090;2024-03-02T09:10:20;0.30;;;0.10;;
76599;SDS011;65489;52.048;6.090;2024-03-02T09:12:46;0.30;;;0.15;;
76599;SDS011;65489;52.048;6.090;2024-03-02T09:15:11;0.43;;;0.20;;
76599;SDS011;65489;52.048;6.090;2024-03-02T09:17:37;0.35;;;0.20;;
76599;SDS011;65489;52.048;6.090;2024-03-02T09:20:02;0.52;;;0.10;;
76599;SDS011;65489;52.048;6.090;2024-03-02T09:22:29;0.32;;;0.20;;
76599;SDS011;65489;52.048;6.090;2024-03-02T09:24:55;0.50;;;0.20;;
76599;SDS011;65489;52.048;6.090;2024-03-02T09:27:21;0.20;;;0.10;;
76599;SDS011;65489;52.048;6.090;2024-03-02T09:29:47;0.85;;;0.20;;
76599;SDS011;65489;52.048;6.090;2024-03-02T09:32:13;0.30;;;0.17;;
76599;SDS011;65489;52.048;6.090;2024-03-02T09:34:39;0.22;;;0.10;;
76599;SDS011;65489;52.048;6.090;2024-03-02T09:37:04;0.20;;;0.03;;
76599;SDS011;65489;52.048;6.090;2024-03-02T09:39:30;0.20;;;0.10;;
76599;SDS011;65489;52.048;6.090;2024-03-02T09:41:56;0.20;;;0.10;;
76599;SDS011;65489;52.048;6.090;2024-03-02T09:44:21;0.40;;;0.10;;
76599;SDS011;65489;52.048;6.090;2024-03-02T09:46:50;0.30;;;0.10;;
76599;SDS011;65489;52.048;6.090;2024-03-02T09:49:16;0.38;;;0.20;;
76599;SDS011;65489;52.048;6.090;2024-03-02T09:51:48;2.15;;;0.20;;
76599;SDS011;65489;52.048;6.090;2024-03-02T09:54:15;0.75;;;0.20;;
76599;SDS011;65489;52.048;6.090;2024-03-02T09:56:41;0.30;;;0.20;;
76599;SDS011;65489;52.048;6.090;2024-03-02T09:59:07;0.30;;;0.20;;
76599;SDS011;65489;52.048;6.090;2024-03-02T10:01:32;0.52;;;0.20;;
76599;SDS011;65489;52.048;6.090;2024-03-02T10:04:01;0.35;;;0.20;;
76599;SDS011;65489;52.048;6.090;2024-03-02T10:06:27;0.20;;;0.20;;
76599;SDS011;65489;52.048;6.090;2024-03-02T10:08:54;1.50;;;0.30;;
76599;SDS011;65489;52.048;6.090;2024-03-02T10:16:41;0.55;;;0.20;;
76599;SDS011;65489;52.048;6.090;2024-03-02T10:19:20;0.52;;;0.20;;
76599;SDS011;65489;52.048;6.090;2024-03-02T10:21:49;1.17;;;0.20;;
76599;SDS011;65489;52.048;6.090;2024-03-02T10:24:16;1.00;;;0.17;;
76599;SDS011;65489;52.048;6.090;2024-03-02T10:26:42;0.40;;;0.20;;
76599;SDS011;65489;52.048;6.090;2024-03-02T10:29:11;0.57;;;0.10;;
76599;SDS011;65489;52.048;6.090;2024-03-02T10:31:40;1.27;;;0.20;;
76599;SDS011;65489;52.048;6.090;2024-03-02T10:34:07;0.22;;;0.10;;
76599;SDS011;65489;52.048;6.090;2024-03-02T10:36:33;0.38;;;0.10;;
76599;SDS011;65489;52.048;6.090;2024-03-02T10:39:03;0.30;;;0.20;;
76599;SDS011;65489;52.048;6.090;2024-03-02T10:41:29;0.30;;;0.20;;
76599;SDS011;65489;52.048;6.090;2024-03-02T10:43:57;1.05;;;0.17;;
76599;SDS011;65489;52.048;6.090;2024-03-02T10:46:27;0.38;;;0.13;;
76599;SDS011;65489;52.048;6.090;2024-03-02T10:48:54;0.60;;;0.20;;
76599;SDS011;65489;52.048;6.090;2024-03-02T10:51:20;0.60;;;0.20;;
76599;SDS011;65489;52.048;6.090;2024-03-02T10:53:46;1.00;;;0.20;;
76599;SDS011;65489;52.048;6.090;2024-03-02T10:56:11;0.40;;;0.10;;
76599;SDS011;65489;52.048;6.090;2024-03-02T10:58:41;0.30;;;0.17;;
76599;SDS011;65489;52.048;6.090;2024-03-02T11:01:07;1.00;;;0.20;;
76599;SDS011;65489;52.048;6.090;2024-03-02T11:03:34;0.45;;;0.10;;
76599;SDS011;65489;52.048;6.090;2024-03-02T11:06:00;0.85;;;0.20;;
76599;SDS011;65489;52.048;6.090;2024-03-02T11:08:27;0.70;;;0.10;;
76599;SDS011;65489;52.048;6.090;2024-03-02T11:11:01;0.65;;;0.20;;
76599;SDS011;65489;52.048;6.090;2024-03-02T11:13:39;0.20;;;0.10;;
76599;SDS011;65489;52.048;6.090;2024-03-02T11:16:06;0.63;;;0.28;;
76599;SDS011;65489;52.048;6.090;2024-03-02T11:18:35;0.30;;;0.15;;
76599;SDS011;65489;52.048;6.090;2024-03-02T11:21:01;0.35;;;0.10;;
76599;SDS011;65489;52.048;6.090;2024-03-02T11:23:34;0.50;;;0.13;;
76599;SDS011;65489;52.048;6.090;2024-03-02T11:28:44;1.25;;;0.50;;
76599;SDS011;65489;52.048;6.090;2024-03-02T11:31:10;0.52;;;0.20;;
76599;SDS011;65489;52.048;6.090;2024-03-02T11:33:36;0.52;;;0.30;;
76599;SDS011;65489;52.048;6.090;2024-03-02T11:36:01;0.82;;;0.30;;
76599;SDS011;65489;52.048;6.090;2024-03-02T11:38:27;0.32;;;0.20;;
76599;SDS011;65489;52.048;6.090;2024-03-02T11:40:54;0.60;;;0.30;;
76599;SDS011;65489;52.048;6.090;2024-03-02T11:43:20;0.80;;;0.25;;
76599;SDS011;65489;52.048;6.090;2024-03-02T11:45:45;0.52;;;0.30;;
76599;SDS011;65489;52.048;6.090;2024-03-02T11:48:14;0.52;;;0.20;;
76599;SDS011;65489;52.048;6.090;2024-03-02T11:53:12;1.83;;;0.52;;
76599;SDS011;65489;52.048;6.090;2024-03-02T11:55:39;0.95;;;0.30;;
76599;SDS011;65489;52.048;6.090;2024-03-02T11:58:06;0.88;;;0.40;;
76599;SDS011;65489;52.048;6.090;2024-03-02T12:03:01;1.05;;;0.40;;
76599;SDS011;65489;52.048;6.090;2024-03-02T12:05:27;1.08;;;0.30;;
76599;SDS011;65489;52.048;6.090;2024-03-02T12:08:11;1.33;;;0.40;;
76599;SDS011;65489;52.048;6.090;2024-03-02T12:10:37;0.77;;;0.40;;
76599;SDS011;65489;52.048;6.090;2024-03-02T12:13:03;1.88;;;0.50;;
76599;SDS011;65489;52.048;6.090;2024-03-02T12:15:30;1.95;;;0.43;;
76599;SDS011;65489;52.048;6.090;2024-03-02T12:17:57;2.38;;;0.40;;
76599;SDS011;65489;52.048;6.090;2024-03-02T12:20:23;1.20;;;0.50;;
76599;SDS011;65489;52.048;6.090;2024-03-02T12:22:50;1.77;;;0.40;;
76599;SDS011;65489;52.048;6.090;2024-03-02T12:25:18;1.13;;;0.40;;
76599;SDS011;65489;52.048;6.090;2024-03-02T12:27:44;2.97;;;0.68;;
76599;SDS011;65489;52.048;6.090;2024-03-02T12:30:11;1.60;;;0.40;;
76599;SDS011;65489;52.048;6.090;2024-03-02T12:32:37;1.52;;;0.52;;
76599;SDS011;65489;52.048;6.090;2024-03-02T12:35:04;1.38;;;0.60;;
76599;SDS011;65489;52.048;6.090;2024-03-02T12:37:30;1.85;;;0.60;;
76599;SDS011;65489;52.048;6.090;2024-03-02T12:39:56;2.85;;;0.80;;
76599;SDS011;65489;52.048;6.090;2024-03-02T12:42:21;2.35;;;0.70;;
76599;SDS011;65489;52.048;6.090;2024-03-02T12:44:49;4.00;;;0.77;;
76599;SDS011;65489;52.048;6.090;2024-03-02T12:47:14;1.00;;;0.50;;
76599;SDS011;65489;52.048;6.090;2024-03-02T12:49:40;3.60;;;0.70;;
76599;SDS011;65489;52.048;6.090;2024-03-02T12:52:06;2.50;;;0.70;;
76599;SDS011;65489;52.048;6.090;2024-03-02T12:54:31;1.40;;;0.55;;
76599;SDS011;65489;52.048;6.090;2024-03-02T12:56:58;1.58;;;0.80;;
76599;SDS011;65489;52.048;6.090;2024-03-02T12:59:24;4.18;;;0.80;;
76599;SDS011;65489;52.048;6.090;2024-03-02T13:01:54;2.17;;;0.60;;
76599;SDS011;65489;52.048;6.090;2024-03-02T13:04:26;1.70;;;0.70;;
76599;SDS011;65489;52.048;6.090;2024-03-02T13:06:53;2.38;;;0.60;;
76599;SDS011;65489;52.048;6.090;2024-03-02T13:09:21;3.28;;;0.75;;
76599;SDS011;65489;52.048;6.090;2024-03-02T13:11:46;2.97;;;0.70;;
76599;SDS011;65489;52.048;6.090;2024-03-02T13:14:12;1.40;;;0.63;;
76599;SDS011;65489;52.048;6.090;2024-03-02T13:16:41;1.50;;;0.60;;
76599;SDS011;65489;52.048;6.090;2024-03-02T13:19:13;2.15;;;0.65;;
76599;SDS011;65489;52.048;6.090;2024-03-02T13:21:38;2.22;;;0.70;;
76599;SDS011;65489;52.048;6.090;2024-03-02T13:24:04;2.80;;;0.70;;
76599;SDS011;65489;52.048;6.090;2024-03-02T13:26:30;2.78;;;0.60;;
76599;SDS011;65489;52.048;6.090;2024-03-02T13:28:55;1.55;;;0.88;;
76599;SDS011;65489;52.048;6.090;2024-03-02T13:31:21;3.05;;;1.02;;
76599;SDS011;65489;52.048;6.090;2024-03-02T13:33:47;1.83;;;0.70;;
76599;SDS011;65489;52.048;6.090;2024-03-02T13:36:12;1.17;;;0.50;;
76599;SDS011;65489;52.048;6.090;2024-03-02T13:38:38;1.90;;;0.63;;
76599;SDS011;65489;52.048;6.090;2024-03-02T13:41:03;2.40;;;0.82;;
76599;SDS011;65489;52.048;6.090;2024-03-02T13:43:29;1.95;;;0.70;;
76599;SDS011;65489;52.048;6.090;2024-03-02T13:45:57;2.35;;;0.70;;
76599;SDS011;65489;52.048;6.090;2024-03-02T13:48:23;3.67;;;0.93;;
76599;SDS011;65489;52.048;6.090;2024-03-02T13:50:51;2.65;;;0.70;;
76599;SDS011;65489;52.048;6.090;2024-03-02T13:53:17;1.98;;;0.70;;
76599;SDS011;65489;52.048;6.090;2024-03-02T13:55:43;4.47;;;1.00;;
76599;SDS011;65489;52.048;6.090;2024-03-02T13:58:09;2.33;;;0.75;;
76599;SDS011;65489;52.048;6.090;2024-03-02T14:00:35;1.42;;;0.60;;
76599;SDS011;65489;52.048;6.090;2024-03-02T14:03:02;1.88;;;0.77;;
76599;SDS011;65489;52.048;6.090;2024-03-02T14:05:28;2.40;;;0.68;;
76599;SDS011;65489;52.048;6.090;2024-03-02T14:07:54;2.13;;;0.68;;
76599;SDS011;65489;52.048;6.090;2024-03-02T14:10:19;1.67;;;0.70;;
76599;SDS011;65489;52.048;6.090;2024-03-02T14:12:48;1.37;;;0.80;;
76599;SDS011;65489;52.048;6.090;2024-03-02T14:15:13;1.83;;;0.85;;
76599;SDS011;65489;52.048;6.090;2024-03-02T14:17:39;2.45;;;0.90;;
76599;SDS011;65489;52.048;6.090;2024-03-02T14:20:04;2.22;;;0.85;;
76599;SDS011;65489;52.048;6.090;2024-03-02T14:22:31;2.45;;;0.70;;
76599;SDS011;65489;52.048;6.090;2024-03-02T14:24:56;2.38;;;0.65;;
76599;SDS011;65489;52.048;6.090;2024-03-02T14:27:22;2.90;;;0.60;;
76599;SDS011;65489;52.048;6.090;2024-03-02T14:29:47;2.03;;;0.80;;
76599;SDS011;65489;52.048;6.090;2024-03-02T14:32:13;2.00;;;0.68;;
76599;SDS011;65489;52.048;6.090;2024-03-02T14:34:39;1.48;;;0.60;;
76599;SDS011;65489;52.048;6.090;2024-03-02T14:37:04;1.33;;;0.50;;
76599;SDS011;65489;52.048;6.090;2024-03-02T14:39:30;1.70;;;0.60;;
76599;SDS011;65489;52.048;6.090;2024-03-02T14:41:59;2.58;;;0.80;;
76599;SDS011;65489;52.048;6.090;2024-03-02T14:44:25;1.63;;;0.70;;
76599;SDS011;65489;52.048;6.090;2024-03-02T14:46:51;2.00;;;0.90;;
76599;SDS011;65489;52.048;6.090;2024-03-02T14:49:16;1.70;;;0.77;;
76599;SDS011;65489;52.048;6.090;2024-03-02T14:51:43;1.70;;;0.75;;
76599;SDS011;65489;52.048;6.090;2024-03-02T14:54:09;2.60;;;0.60;;
76599;SDS011;65489;52.048;6.090;2024-03-02T14:56:34;2.00;;;0.80;;
76599;SDS011;65489;52.048;6.090;2024-03-02T14:59:00;1.65;;;0.80;;
76599;SDS011;65489;52.048;6.090;2024-03-02T15:01:25;1.83;;;0.60;;